createdAt,value
2023-07-08T00:00:11.497Z,21.40
2023-07-08T00:00:44.245Z,21.37
2023-07-08T00:01:18.673Z,21.38
2023-07-08T00:01:50.670Z,21.37
2023-07-08T00:02:22.667Z,21.34
2023-07-08T00:02:54.633Z,21.31
2023-07-08T00:03:26.575Z,21.32
2023-07-08T00:03:58.537Z,21.31
2023-07-08T00:04:30.480Z,21.30
2023-07-08T00:05:02.425Z,21.21
2023-07-08T00:05:34.338Z,21.24
2023-07-08T00:06:06.244Z,21.24
2023-07-08T00:06:38.343Z,21.23
2023-07-08T00:07:14.218Z,21.23
2023-07-08T00:07:46.531Z,21.24
2023-07-08T00:08:20.514Z,21.20
2023-07-08T00:08:52.412Z,21.20
2023-07-08T00:09:24.781Z,21.18
2023-07-08T00:09:56.749Z,21.20
2023-07-08T00:10:31.593Z,21.17
2023-07-08T00:11:10.740Z,21.09
2023-07-08T00:11:42.647Z,21.10
2023-07-08T00:12:14.553Z,21.08
2023-07-08T00:12:49.122Z,21.08
2023-07-08T00:13:21.101Z,21.04
2023-07-08T00:13:53.073Z,21.07
2023-07-08T00:14:25.170Z,21.09
2023-07-08T00:14:57.068Z,21.10
2023-07-08T00:15:33.458Z,21.12
2023-07-08T00:16:05.918Z,21.13
2023-07-08T00:16:37.851Z,21.10
2023-07-08T00:17:16.422Z,21.07
2023-07-08T00:17:48.411Z,21.04
2023-07-08T00:18:20.334Z,21.04
2023-07-08T00:18:52.273Z,21.04
2023-07-08T00:19:25.561Z,21.03
2023-07-08T00:19:57.511Z,20.99
2023-07-08T00:20:32.752Z,21.00
2023-07-08T00:21:09.534Z,21.01
2023-07-08T00:21:41.418Z,21.02
2023-07-08T00:22:15.203Z,20.99
2023-07-08T00:22:53.007Z,20.97
2023-07-08T00:23:24.904Z,20.98
2023-07-08T00:23:56.913Z,20.99
2023-07-08T00:24:28.815Z,20.96
2023-07-08T00:25:00.705Z,20.92
2023-07-08T00:25:33.470Z,20.90
2023-07-08T00:26:16.895Z,20.91
2023-07-08T00:26:48.862Z,20.91
2023-07-08T00:27:20.774Z,20.91
2023-07-08T00:27:52.758Z,20.89
2023-07-08T00:28:24.653Z,20.82
2023-07-08T00:28:57.366Z,20.78
2023-07-08T00:29:29.249Z,20.79
2023-07-08T00:30:01.596Z,20.80
2023-07-08T00:30:33.780Z,20.74
2023-07-08T00:31:10.884Z,20.72
2023-07-08T00:31:44.191Z,20.71
2023-07-08T00:32:17.118Z,20.72
2023-07-08T00:32:49.125Z,20.73
2023-07-08T00:33:21.107Z,20.71
2023-07-08T00:33:56.529Z,20.71
2023-07-08T00:34:29.041Z,20.72
2023-07-08T00:35:00.932Z,20.70
2023-07-08T00:35:36.739Z,20.69
2023-07-08T00:36:18.088Z,20.70
2023-07-08T00:36:50.074Z,20.65
2023-07-08T00:37:22.000Z,20.68
2023-07-08T00:37:54.391Z,20.68
2023-07-08T00:38:28.381Z,20.68
2023-07-08T00:39:00.463Z,20.67
2023-07-08T00:39:33.368Z,20.66
2023-07-08T00:40:23.673Z,20.60
2023-07-08T00:40:58.788Z,20.62
2023-07-08T00:41:39.506Z,20.64
2023-07-08T00:42:18.894Z,20.58
2023-07-08T00:42:53.205Z,20.58
2023-07-08T00:43:39.664Z,20.57
2023-07-08T00:44:13.142Z,20.54
2023-07-08T00:44:45.662Z,20.56
2023-07-08T00:45:37.061Z,20.54
2023-07-08T00:46:28.291Z,20.54
2023-07-08T00:47:05.742Z,20.53
2023-07-08T00:47:38.107Z,20.53
2023-07-08T00:48:20.106Z,20.51
2023-07-08T00:48:54.600Z,20.49
2023-07-08T00:49:31.369Z,20.49
2023-07-08T00:50:09.239Z,20.47
2023-07-08T00:50:41.158Z,20.45
2023-07-08T00:51:13.532Z,20.44
2023-07-08T00:51:45.437Z,20.40
2023-07-08T00:52:29.053Z,20.40
2023-07-08T00:53:26.251Z,20.36
2023-07-08T00:53:58.158Z,20.38
2023-07-08T00:54:30.061Z,20.38
2023-07-08T00:55:07.797Z,20.38
2023-07-08T00:55:39.792Z,20.33
2023-07-08T00:56:36.353Z,20.32
2023-07-08T00:57:08.474Z,20.30
2023-07-08T00:57:43.800Z,20.30
2023-07-08T00:58:25.414Z,20.30
2023-07-08T00:59:03.109Z,20.30
2023-07-08T01:00:00.513Z,20.31
2023-07-08T01:00:32.410Z,20.29
2023-07-08T01:01:06.772Z,20.29
2023-07-08T01:01:41.942Z,20.29
2023-07-08T01:02:16.747Z,20.28
2023-07-08T01:02:53.547Z,20.27
2023-07-08T01:03:29.077Z,20.28
2023-07-08T01:04:23.351Z,20.19
2023-07-08T01:05:18.023Z,20.19
2023-07-08T01:05:52.137Z,20.19
2023-07-08T01:06:32.713Z,20.16
2023-07-08T01:07:05.358Z,20.13
2023-07-08T01:07:40.107Z,20.10
2023-07-08T01:08:12.202Z,20.14
2023-07-08T01:08:44.185Z,20.15
2023-07-08T01:09:17.235Z,20.11
2023-07-08T01:09:53.236Z,20.12
2023-07-08T01:10:32.287Z,20.10
2023-07-08T01:11:08.569Z,20.08
2023-07-08T01:11:43.515Z,20.11
2023-07-08T01:12:23.612Z,20.09
2023-07-08T01:12:58.801Z,20.06
2023-07-08T01:13:56.777Z,20.07
2023-07-08T01:14:32.798Z,20.09
2023-07-08T01:15:18.872Z,20.11
2023-07-08T01:15:50.891Z,20.13
2023-07-08T01:16:26.604Z,20.10
2023-07-08T01:16:58.985Z,20.07
2023-07-08T01:17:33.919Z,20.07
2023-07-08T01:18:05.950Z,20.03
2023-07-08T01:18:43.865Z,20.01
2023-07-08T01:19:20.803Z,19.99
2023-07-08T01:19:54.935Z,20.00
2023-07-08T01:20:32.271Z,19.99
2023-07-08T01:21:10.566Z,19.97
2023-07-08T01:21:57.490Z,19.98
2023-07-08T01:22:38.362Z,19.91
2023-07-08T01:23:13.696Z,19.90
2023-07-08T01:23:45.585Z,19.92
2023-07-08T01:24:17.499Z,19.91
2023-07-08T01:24:49.396Z,19.85
2023-07-08T01:25:22.399Z,19.80
2023-07-08T01:25:54.316Z,19.81
2023-07-08T01:26:27.530Z,19.79
2023-07-08T01:27:01.807Z,19.83
2023-07-08T01:27:37.253Z,19.82
2023-07-08T01:28:09.181Z,19.79
2023-07-08T01:28:41.176Z,19.80
2023-07-08T01:29:13.933Z,19.79
2023-07-08T01:29:47.493Z,19.80
2023-07-08T01:30:19.569Z,19.76
2023-07-08T01:30:51.614Z,19.73
2023-07-08T01:31:24.537Z,19.71
2023-07-08T01:31:57.558Z,19.73
2023-07-08T01:32:29.674Z,19.75
2023-07-08T01:33:08.069Z,19.75
2023-07-08T01:33:40.538Z,19.74
2023-07-08T01:34:12.614Z,19.70
2023-07-08T01:35:01.331Z,19.72
2023-07-08T01:35:33.601Z,19.66
2023-07-08T01:36:06.245Z,19.65
2023-07-08T01:36:43.769Z,19.67
2023-07-08T01:37:15.878Z,19.65
2023-07-08T01:37:53.344Z,19.66
2023-07-08T01:38:27.546Z,19.69
2023-07-08T01:38:59.732Z,19.65
2023-07-08T01:39:32.820Z,19.63
2023-07-08T01:40:22.552Z,19.63
2023-07-08T01:40:57.803Z,19.61
2023-07-08T01:41:29.911Z,19.61
2023-07-08T01:42:02.068Z,19.61
2023-07-08T01:42:34.019Z,19.58
2023-07-08T01:43:09.603Z,19.55
2023-07-08T01:43:42.006Z,19.56
2023-07-08T01:44:34.097Z,19.54
2023-07-08T01:45:13.644Z,19.54
2023-07-08T01:45:47.084Z,19.55
2023-07-08T01:46:23.675Z,19.55
2023-07-08T01:46:59.431Z,19.56
2023-07-08T01:47:31.348Z,19.49
2023-07-08T01:48:08.932Z,19.51
2023-07-08T01:48:44.710Z,19.53
2023-07-08T01:49:16.648Z,19.53
2023-07-08T01:49:50.182Z,19.52
2023-07-08T01:50:23.317Z,19.50
2023-07-08T01:51:06.933Z,19.51
2023-07-08T01:51:38.825Z,19.48
2023-07-08T01:52:12.987Z,19.46
2023-07-08T01:52:44.895Z,19.45
2023-07-08T01:53:20.491Z,19.40
2023-07-08T01:53:52.533Z,19.43
2023-07-08T01:54:24.463Z,19.40
2023-07-08T01:54:56.853Z,19.36
2023-07-08T01:55:32.834Z,19.39
2023-07-08T01:56:06.387Z,19.33
2023-07-08T01:56:38.294Z,19.32
2023-07-08T01:57:10.190Z,19.33
2023-07-08T01:57:42.088Z,19.32
2023-07-08T01:58:14.073Z,19.33
2023-07-08T01:58:46.145Z,19.32
2023-07-08T01:59:18.097Z,19.33
2023-07-08T01:59:50.046Z,19.32
2023-07-08T02:00:23.411Z,19.32
2023-07-08T02:00:55.661Z,19.32
2023-07-08T02:01:27.589Z,19.31
2023-07-08T02:01:59.516Z,19.33
2023-07-08T02:02:31.491Z,19.31
2023-07-08T02:03:03.484Z,19.26
2023-07-08T02:03:36.024Z,19.29
2023-07-08T02:04:07.967Z,19.27
2023-07-08T02:04:39.873Z,19.30
2023-07-08T02:05:11.946Z,19.30
2023-07-08T02:05:44.462Z,19.28
2023-07-08T02:06:16.365Z,19.29
2023-07-08T02:06:58.787Z,19.31
2023-07-08T02:07:30.688Z,19.32
2023-07-08T02:08:02.604Z,19.28
2023-07-08T02:08:34.514Z,19.27
2023-07-08T02:09:07.334Z,19.23
2023-07-08T02:09:39.231Z,19.24
2023-07-08T02:10:11.626Z,19.23
2023-07-08T02:10:45.264Z,19.25
2023-07-08T02:11:17.179Z,19.24
2023-07-08T02:11:49.085Z,19.23
2023-07-08T02:12:20.973Z,19.18
2023-07-08T02:12:52.874Z,19.14
2023-07-08T02:13:25.523Z,19.16
2023-07-08T02:13:57.474Z,19.18
2023-07-08T02:14:29.391Z,19.18
2023-07-08T02:15:02.410Z,19.15
2023-07-08T02:15:34.523Z,19.17
2023-07-08T02:16:08.293Z,19.17
2023-07-08T02:16:40.270Z,19.12
2023-07-08T02:17:12.203Z,19.14
2023-07-08T02:17:44.147Z,19.15
2023-07-08T02:18:16.129Z,19.12
2023-07-08T02:18:48.028Z,19.12
2023-07-08T02:19:20.711Z,19.10
2023-07-08T02:19:52.633Z,19.13
2023-07-08T02:20:24.701Z,19.10
2023-07-08T02:20:56.895Z,19.11
2023-07-08T02:21:32.139Z,19.09
2023-07-08T02:22:05.623Z,19.10
2023-07-08T02:22:37.959Z,19.08
2023-07-08T02:23:09.873Z,19.06
2023-07-08T02:23:41.924Z,19.08
2023-07-08T02:24:13.860Z,19.08
2023-07-08T02:24:45.741Z,19.06
2023-07-08T02:25:17.820Z,19.05
2023-07-08T02:25:54.057Z,19.02
2023-07-08T02:26:26.310Z,19.03
2023-07-08T02:26:58.627Z,19.04
2023-07-08T02:27:30.532Z,19.05
2023-07-08T02:28:02.435Z,19.06
2023-07-08T02:28:34.361Z,19.04
2023-07-08T02:29:06.260Z,19.02
2023-07-08T02:29:39.325Z,19.01
2023-07-08T02:30:11.607Z,19.00
2023-07-08T02:30:43.505Z,19.02
2023-07-08T02:31:15.434Z,19.01
2023-07-08T02:31:47.436Z,19.01
2023-07-08T02:32:19.376Z,18.99
2023-07-08T02:32:58.086Z,18.96
2023-07-08T02:33:34.181Z,18.99
2023-07-08T02:34:06.363Z,18.99
2023-07-08T02:34:38.502Z,18.99
2023-07-08T02:35:10.460Z,18.98
2023-07-08T02:35:42.373Z,18.97
2023-07-08T02:36:14.271Z,18.98
2023-07-08T02:36:46.178Z,18.94
2023-07-08T02:37:18.198Z,18.93
2023-07-08T02:37:50.097Z,18.95
2023-07-08T02:38:22.021Z,18.98
2023-07-08T02:38:53.912Z,18.99
2023-07-08T02:39:25.827Z,18.96
2023-07-08T02:39:57.776Z,18.94
2023-07-08T02:40:29.699Z,18.90
2023-07-08T02:41:02.013Z,18.92
2023-07-08T02:41:34.102Z,18.94
2023-07-08T02:42:06.006Z,18.91
2023-07-08T02:42:37.918Z,18.89
2023-07-08T02:43:09.809Z,18.87
2023-07-08T02:43:41.733Z,18.87
2023-07-08T02:44:13.656Z,18.88
2023-07-08T02:44:45.554Z,18.86
2023-07-08T02:45:18.938Z,18.83
2023-07-08T02:45:51.941Z,18.83
2023-07-08T02:46:23.979Z,18.83
2023-07-08T02:46:55.949Z,18.82
2023-07-08T02:47:27.862Z,18.83
2023-07-08T02:47:59.815Z,18.82
2023-07-08T02:48:31.776Z,18.81
2023-07-08T02:49:03.747Z,18.82
2023-07-08T02:49:35.714Z,18.85
2023-07-08T02:50:09.846Z,18.86
2023-07-08T02:50:41.839Z,18.84
2023-07-08T02:51:13.781Z,18.87
2023-07-08T02:51:45.689Z,18.88
2023-07-08T02:52:17.572Z,18.86
2023-07-08T02:52:49.469Z,18.88
2023-07-08T02:53:21.372Z,18.83
2023-07-08T02:53:53.275Z,18.84
2023-07-08T02:54:25.182Z,18.86
2023-07-08T02:54:57.091Z,18.82
2023-07-08T02:55:28.982Z,18.83
2023-07-08T02:56:00.896Z,18.81
2023-07-08T02:56:32.803Z,18.80
2023-07-08T02:57:04.915Z,18.79
2023-07-08T02:57:36.867Z,18.79
2023-07-08T02:58:08.778Z,18.81
2023-07-08T02:58:40.698Z,18.77
2023-07-08T02:59:12.614Z,18.79
2023-07-08T02:59:47.472Z,18.79
2023-07-08T03:00:19.429Z,18.82
2023-07-08T03:00:55.777Z,18.76
2023-07-08T03:01:28.028Z,18.78
2023-07-08T03:02:00.032Z,18.78
2023-07-08T03:02:31.987Z,18.74
2023-07-08T03:03:04.590Z,18.78
2023-07-08T03:03:36.588Z,18.79
2023-07-08T03:04:15.186Z,18.78
2023-07-08T03:04:47.140Z,18.78
2023-07-08T03:05:22.150Z,18.76
2023-07-08T03:06:01.403Z,18.74
2023-07-08T03:06:34.171Z,18.74
2023-07-08T03:07:07.103Z,18.74
2023-07-08T03:07:39.071Z,18.75
2023-07-08T03:08:10.974Z,18.75
2023-07-08T03:08:42.877Z,18.71
2023-07-08T03:09:14.790Z,18.73
2023-07-08T03:09:46.739Z,18.71
2023-07-08T03:10:18.649Z,18.69
2023-07-08T03:10:57.050Z,18.69
2023-07-08T03:11:29.071Z,18.68
2023-07-08T03:12:01.890Z,18.69
2023-07-08T03:12:33.919Z,18.70
2023-07-08T03:13:05.808Z,18.72
2023-07-08T03:13:37.768Z,18.70
2023-07-08T03:14:09.763Z,18.70
2023-07-08T03:14:41.755Z,18.63
2023-07-08T03:15:13.873Z,18.67
2023-07-08T03:15:46.566Z,18.67
2023-07-08T03:16:18.477Z,18.66
2023-07-08T03:16:50.413Z,18.66
2023-07-08T03:17:22.506Z,18.62
2023-07-08T03:17:58.836Z,18.64
2023-07-08T03:18:30.962Z,18.63
2023-07-08T03:19:03.779Z,18.65
2023-07-08T03:19:36.119Z,18.65
2023-07-08T03:20:08.634Z,18.66
2023-07-08T03:20:45.825Z,18.68
2023-07-08T03:21:19.325Z,18.68
2023-07-08T03:21:51.227Z,18.68
2023-07-08T03:22:23.157Z,18.66
2023-07-08T03:22:55.069Z,18.65
2023-07-08T03:23:27.298Z,18.64
2023-07-08T03:23:59.197Z,18.62
2023-07-08T03:24:31.151Z,18.64
2023-07-08T03:25:03.427Z,18.58
2023-07-08T03:25:37.323Z,18.54
2023-07-08T03:26:15.097Z,18.55
2023-07-08T03:26:47.657Z,18.59
2023-07-08T03:27:19.610Z,18.61
2023-07-08T03:27:51.496Z,18.63
2023-07-08T03:28:23.383Z,18.58
2023-07-08T03:28:55.288Z,18.56
2023-07-08T03:29:27.514Z,18.59
2023-07-08T03:29:59.455Z,18.58
2023-07-08T03:30:31.370Z,18.59
2023-07-08T03:31:03.445Z,18.58
2023-07-08T03:31:35.507Z,18.58
2023-07-08T03:32:11.212Z,18.58
2023-07-08T03:32:43.120Z,18.59
2023-07-08T03:33:15.070Z,18.59
2023-07-08T03:33:47.050Z,18.56
2023-07-08T03:34:19.222Z,18.54
2023-07-08T03:34:51.158Z,18.57
2023-07-08T03:35:23.217Z,18.55
2023-07-08T03:35:56.350Z,18.54
2023-07-08T03:36:28.328Z,18.55
2023-07-08T03:37:00.318Z,18.55
2023-07-08T03:37:32.252Z,18.58
2023-07-08T03:38:04.286Z,18.56
2023-07-08T03:38:36.191Z,18.54
2023-07-08T03:39:08.940Z,18.46
2023-07-08T03:39:40.864Z,18.47
2023-07-08T03:40:13.082Z,18.50
2023-07-08T03:40:45.469Z,18.50
2023-07-08T03:41:17.424Z,18.50
2023-07-08T03:41:50.833Z,18.53
2023-07-08T03:42:22.750Z,18.51
2023-07-08T03:42:54.659Z,18.51
2023-07-08T03:43:26.608Z,18.49
2023-07-08T03:43:58.531Z,18.53
2023-07-08T03:44:30.490Z,18.54
2023-07-08T03:45:02.390Z,18.52
2023-07-08T03:45:34.417Z,18.52
2023-07-08T03:46:06.328Z,18.53
2023-07-08T03:46:38.492Z,18.54
2023-07-08T03:47:10.504Z,18.50
2023-07-08T03:47:42.447Z,18.54
2023-07-08T03:48:14.436Z,18.53
2023-07-08T03:48:47.452Z,18.53
2023-07-08T03:49:23.330Z,18.56
2023-07-08T03:49:55.290Z,18.56
2023-07-08T03:50:28.031Z,18.56
2023-07-08T03:51:00.341Z,18.56
2023-07-08T03:51:37.897Z,18.59
2023-07-08T03:52:17.022Z,18.57
2023-07-08T03:52:50.472Z,18.59
2023-07-08T03:53:22.379Z,18.60
2023-07-08T03:53:54.270Z,18.60
2023-07-08T03:54:26.655Z,18.60
2023-07-08T03:54:58.542Z,18.61
2023-07-08T03:55:30.440Z,18.60
2023-07-08T03:56:02.344Z,18.60
2023-07-08T03:56:34.260Z,18.59
2023-07-08T03:57:06.171Z,18.58
2023-07-08T03:57:38.088Z,18.59
2023-07-08T03:58:10.000Z,18.59
2023-07-08T03:58:42.064Z,18.60
2023-07-08T03:59:13.962Z,18.59
2023-07-08T03:59:45.865Z,18.59
2023-07-08T04:00:17.876Z,18.59
2023-07-08T04:00:49.782Z,18.63
2023-07-08T04:01:24.598Z,18.68
2023-07-08T04:01:56.674Z,18.67
2023-07-08T04:02:28.590Z,18.68
2023-07-08T04:03:00.558Z,18.69
2023-07-08T04:03:32.618Z,18.71
2023-07-08T04:04:04.650Z,18.71
2023-07-08T04:04:36.618Z,18.69
2023-07-08T04:05:15.056Z,18.70
2023-07-08T04:05:46.958Z,18.68
2023-07-08T04:06:18.937Z,18.72
2023-07-08T04:06:51.429Z,18.69
2023-07-08T04:07:23.342Z,18.71
2023-07-08T04:07:56.732Z,18.75
2023-07-08T04:08:28.649Z,18.68
2023-07-08T04:09:00.546Z,18.68
2023-07-08T04:09:32.454Z,18.73
2023-07-08T04:10:04.381Z,18.74
2023-07-08T04:10:36.284Z,18.73
2023-07-08T04:11:10.977Z,18.75
2023-07-08T04:11:43.175Z,18.75
2023-07-08T04:12:15.313Z,18.71
2023-07-08T04:12:47.362Z,18.73
2023-07-08T04:13:19.281Z,18.75
2023-07-08T04:13:51.880Z,18.78
2023-07-08T04:14:23.844Z,18.77
2023-07-08T04:14:55.792Z,18.78
2023-07-08T04:15:29.669Z,18.79
2023-07-08T04:16:04.120Z,18.83
2023-07-08T04:16:47.426Z,18.86
2023-07-08T04:17:20.386Z,18.89
2023-07-08T04:17:52.990Z,18.92
2023-07-08T04:18:24.942Z,18.95
2023-07-08T04:18:57.277Z,18.95
2023-07-08T04:19:29.260Z,19.00
2023-07-08T04:20:07.309Z,19.02
2023-07-08T04:20:39.224Z,19.05
2023-07-08T04:21:46.286Z,19.05
2023-07-08T04:22:18.472Z,19.05
2023-07-08T04:22:50.396Z,19.06
2023-07-08T04:23:23.478Z,19.09
2023-07-08T04:23:55.401Z,19.12
2023-07-08T04:24:27.298Z,19.14
2023-07-08T04:24:59.246Z,19.12
2023-07-08T04:25:31.143Z,19.13
2023-07-08T04:26:03.236Z,19.14
2023-07-08T04:26:36.689Z,19.17
2023-07-08T04:27:15.106Z,19.17
2023-07-08T04:27:47.082Z,19.18
2023-07-08T04:28:19.004Z,19.22
2023-07-08T04:28:51.502Z,19.23
2023-07-08T04:29:24.411Z,19.30
2023-07-08T04:29:56.535Z,19.33
2023-07-08T04:30:28.449Z,19.32
2023-07-08T04:31:00.856Z,19.32
2023-07-08T04:31:33.021Z,19.38
2023-07-08T04:32:05.327Z,19.37
2023-07-08T04:32:38.865Z,19.41
2023-07-08T04:33:15.190Z,19.38
2023-07-08T04:33:47.079Z,19.39
2023-07-08T04:34:19.001Z,19.45
2023-07-08T04:34:50.884Z,19.48
2023-07-08T04:35:22.967Z,19.50
2023-07-08T04:35:55.487Z,19.54
2023-07-08T04:36:27.926Z,19.55
2023-07-08T04:36:59.875Z,19.60
2023-07-08T04:37:31.791Z,19.57
2023-07-08T04:38:10.295Z,19.58
2023-07-08T04:38:43.091Z,19.58
2023-07-08T04:39:15.366Z,19.59
2023-07-08T04:39:47.449Z,19.60
2023-07-08T04:40:21.350Z,19.60
2023-07-08T04:40:54.740Z,19.64
2023-07-08T04:41:27.018Z,19.64
2023-07-08T04:41:58.934Z,19.66
2023-07-08T04:42:30.834Z,19.65
2023-07-08T04:43:03.286Z,19.68
2023-07-08T04:43:35.204Z,19.70
2023-07-08T04:44:09.837Z,19.72
2023-07-08T04:44:42.459Z,19.70
2023-07-08T04:45:18.512Z,19.74
2023-07-08T04:45:52.872Z,19.76
2023-07-08T04:46:34.264Z,19.76
2023-07-08T04:47:06.183Z,19.76
2023-07-08T04:47:38.078Z,19.75
2023-07-08T04:48:14.698Z,19.73
2023-07-08T04:48:47.029Z,19.68
2023-07-08T04:49:18.938Z,19.73
2023-07-08T04:49:50.847Z,19.76
2023-07-08T04:50:22.920Z,19.77
2023-07-08T04:50:54.914Z,19.80
2023-07-08T04:51:26.838Z,19.82
2023-07-08T04:52:02.964Z,19.80
2023-07-08T04:52:34.901Z,19.81
2023-07-08T04:53:06.808Z,19.81
2023-07-08T04:53:38.710Z,19.81
2023-07-08T04:54:11.681Z,19.85
2023-07-08T04:54:43.603Z,19.83
2023-07-08T04:55:15.559Z,19.88
2023-07-08T04:55:53.735Z,19.91
2023-07-08T04:56:40.914Z,19.95
2023-07-08T04:57:13.003Z,19.94
2023-07-08T04:57:44.927Z,20.00
2023-07-08T04:58:16.837Z,20.01
2023-07-08T04:58:48.752Z,20.04
2023-07-08T04:59:23.428Z,20.04
2023-07-08T04:59:55.327Z,20.05
2023-07-08T05:00:27.264Z,20.03
2023-07-08T05:00:59.335Z,20.04
2023-07-08T05:01:31.827Z,20.05
2023-07-08T05:02:03.811Z,20.05
2023-07-08T05:02:36.099Z,20.01
2023-07-08T05:03:08.041Z,20.00
2023-07-08T05:03:40.020Z,20.01
2023-07-08T05:04:17.601Z,20.05
2023-07-08T05:04:49.528Z,20.07
2023-07-08T05:05:21.770Z,20.09
2023-07-08T05:05:53.688Z,20.13
2023-07-08T05:06:25.592Z,20.13
2023-07-08T05:06:57.515Z,20.17
2023-07-08T05:07:29.407Z,20.16
2023-07-08T05:08:01.799Z,20.20
2023-07-08T05:08:33.708Z,20.17
2023-07-08T05:09:06.331Z,20.17
2023-07-08T05:09:38.294Z,20.16
2023-07-08T05:10:10.408Z,20.21
2023-07-08T05:10:42.320Z,20.21
2023-07-08T05:11:14.243Z,20.24
2023-07-08T05:11:46.293Z,20.27
2023-07-08T05:12:18.233Z,20.25
2023-07-08T05:12:50.299Z,20.23
2023-07-08T05:13:23.267Z,20.27
2023-07-08T05:13:55.325Z,20.28
2023-07-08T05:14:27.315Z,20.30
2023-07-08T05:14:59.239Z,20.34
2023-07-08T05:15:31.145Z,20.36
2023-07-08T05:16:03.089Z,20.37
2023-07-08T05:16:38.927Z,20.37
2023-07-08T05:17:11.816Z,20.41
2023-07-08T05:17:44.254Z,20.40
2023-07-08T05:18:16.201Z,20.40
2023-07-08T05:18:48.415Z,20.43
2023-07-08T05:19:23.183Z,20.47
2023-07-08T05:19:55.473Z,20.50
2023-07-08T05:20:27.401Z,20.54
2023-07-08T05:20:59.555Z,20.57
2023-07-08T05:21:34.765Z,20.61
2023-07-08T05:22:06.690Z,20.65
2023-07-08T05:22:38.579Z,20.68
2023-07-08T05:23:10.475Z,20.72
2023-07-08T05:23:42.426Z,20.74
2023-07-08T05:24:14.324Z,20.77
2023-07-08T05:24:48.065Z,20.80
2023-07-08T05:25:22.082Z,20.82
2023-07-08T05:25:55.353Z,20.88
2023-07-08T05:26:27.348Z,20.90
2023-07-08T05:27:00.626Z,20.92
2023-07-08T05:27:35.204Z,20.92
2023-07-08T05:28:07.120Z,20.96
2023-07-08T05:28:39.173Z,20.95
2023-07-08T05:29:11.071Z,20.98
2023-07-08T05:29:44.407Z,21.00
2023-07-08T05:30:18.589Z,21.05
2023-07-08T05:30:54.871Z,21.09
2023-07-08T05:31:37.882Z,21.14
2023-07-08T05:32:14.041Z,21.17
2023-07-08T05:32:46.476Z,21.24
2023-07-08T05:33:18.410Z,21.27
2023-07-08T05:33:50.304Z,21.30
2023-07-08T05:34:22.204Z,21.33
2023-07-08T05:34:54.328Z,21.35
2023-07-08T05:35:26.238Z,21.37
2023-07-08T05:35:58.266Z,21.37
2023-07-08T05:36:30.163Z,21.36
2023-07-08T05:37:02.242Z,21.37
2023-07-08T05:37:34.142Z,21.39
2023-07-08T05:38:06.054Z,21.43
2023-07-08T05:38:37.994Z,21.44
2023-07-08T05:39:09.905Z,21.46
2023-07-08T05:39:41.930Z,21.48
2023-07-08T05:40:14.094Z,21.50
2023-07-08T05:40:56.919Z,21.57
2023-07-08T05:41:28.893Z,21.59
2023-07-08T05:42:00.799Z,21.61
2023-07-08T05:42:33.001Z,21.66
2023-07-08T05:43:04.898Z,21.69
2023-07-08T05:43:36.816Z,21.74
2023-07-08T05:44:08.731Z,21.79
2023-07-08T05:44:40.816Z,21.82
2023-07-08T05:45:12.739Z,21.89
2023-07-08T05:45:49.800Z,21.95
2023-07-08T05:46:29.878Z,22.02
2023-07-08T05:47:01.975Z,22.06
2023-07-08T05:47:34.097Z,22.09
2023-07-08T05:48:06.461Z,22.18
2023-07-08T05:48:38.382Z,22.21
2023-07-08T05:49:10.379Z,22.25
2023-07-08T05:49:43.332Z,22.27
2023-07-08T05:50:15.269Z,22.27
2023-07-08T05:50:48.653Z,22.31
2023-07-08T05:51:20.565Z,22.29
2023-07-08T05:51:52.671Z,22.31
2023-07-08T05:52:24.629Z,22.36
2023-07-08T05:52:56.592Z,22.40
2023-07-08T05:53:28.519Z,22.44
2023-07-08T05:54:00.429Z,22.49
2023-07-08T05:54:32.358Z,22.46
2023-07-08T05:55:04.351Z,22.53
2023-07-08T05:55:36.276Z,22.55
2023-07-08T05:56:08.272Z,22.55
2023-07-08T05:56:40.216Z,22.61
2023-07-08T05:57:12.909Z,22.63
2023-07-08T05:57:47.717Z,22.66
2023-07-08T05:58:25.870Z,22.73
2023-07-08T05:58:58.582Z,22.83
2023-07-08T05:59:30.477Z,22.85
2023-07-08T06:00:02.412Z,22.88
2023-07-08T06:00:38.995Z,22.88
2023-07-08T06:01:11.300Z,22.92
2023-07-08T06:01:43.276Z,22.91
2023-07-08T06:02:15.196Z,22.91
2023-07-08T06:02:47.175Z,22.92
2023-07-08T06:03:19.129Z,22.88
2023-07-08T06:03:51.257Z,22.81
2023-07-08T06:04:23.276Z,22.84
2023-07-08T06:04:55.214Z,22.86
2023-07-08T06:05:27.121Z,22.86
2023-07-08T06:05:59.063Z,22.90
2023-07-08T06:06:31.301Z,22.87
2023-07-08T06:07:03.289Z,22.93
2023-07-08T06:07:35.672Z,22.94
2023-07-08T06:08:08.818Z,22.93
2023-07-08T06:08:40.813Z,22.93
2023-07-08T06:09:12.722Z,22.93
2023-07-08T06:09:44.999Z,22.95
2023-07-08T06:10:16.995Z,22.96
2023-07-08T06:10:48.951Z,22.94
2023-07-08T06:11:21.191Z,22.98
2023-07-08T06:11:53.111Z,23.02
2023-07-08T06:12:25.270Z,23.08
2023-07-08T06:12:57.214Z,23.08
2023-07-08T06:13:29.169Z,23.13
2023-07-08T06:14:01.313Z,23.13
2023-07-08T06:14:33.415Z,23.20
2023-07-08T06:15:05.741Z,23.24
2023-07-08T06:15:37.650Z,23.28
2023-07-08T06:16:09.636Z,23.28
2023-07-08T06:16:42.440Z,23.29
2023-07-08T06:17:15.189Z,23.34
2023-07-08T06:17:47.206Z,23.33
2023-07-08T06:18:19.242Z,23.30
2023-07-08T06:18:51.412Z,23.33
2023-07-08T06:19:23.331Z,23.27
2023-07-08T06:19:55.270Z,23.28
2023-07-08T06:20:27.174Z,23.31
2023-07-08T06:20:59.911Z,23.34
2023-07-08T06:21:32.058Z,23.38
2023-07-08T06:22:29.360Z,23.38
2023-07-08T06:22:56.802Z,23.41
2023-07-08T06:23:29.328Z,23.36
2023-07-08T06:24:01.344Z,23.36
2023-07-08T06:24:33.250Z,23.34
2023-07-08T06:25:06.687Z,23.33
2023-07-08T06:25:38.621Z,23.38
2023-07-08T06:26:10.573Z,23.38
2023-07-08T06:26:42.501Z,23.42
2023-07-08T06:27:15.005Z,23.41
2023-07-08T06:27:47.046Z,23.44
2023-07-08T06:28:21.100Z,23.47
2023-07-08T06:28:53.116Z,23.47
2023-07-08T06:29:25.678Z,23.52
2023-07-08T06:29:57.597Z,23.48
2023-07-08T06:30:29.522Z,23.57
2023-07-08T06:31:01.820Z,23.63
2023-07-08T06:31:34.675Z,23.63
2023-07-08T06:32:07.617Z,23.67
2023-07-08T06:32:39.741Z,23.63
2023-07-08T06:33:12.837Z,23.66
2023-07-08T06:33:44.865Z,23.66
2023-07-08T06:34:16.844Z,23.70
2023-07-08T06:34:48.764Z,23.72
2023-07-08T06:35:21.904Z,23.76
2023-07-08T06:35:53.852Z,23.75
2023-07-08T06:36:25.996Z,23.81
2023-07-08T06:37:13.075Z,23.86
2023-07-08T06:37:45.156Z,23.88
2023-07-08T06:38:17.159Z,23.86
2023-07-08T06:38:49.128Z,23.82
2023-07-08T06:39:21.174Z,23.82
2023-07-08T06:39:53.096Z,23.76
2023-07-08T06:40:25.011Z,23.75
2023-07-08T06:40:56.990Z,23.78
2023-07-08T06:41:28.917Z,23.80
2023-07-08T06:42:00.941Z,23.82
2023-07-08T06:42:32.875Z,23.84
2023-07-08T06:43:05.132Z,23.87
2023-07-08T06:43:37.047Z,23.88
2023-07-08T06:44:08.964Z,23.88
2023-07-08T06:44:40.893Z,23.91
2023-07-08T06:45:12.989Z,23.94
2023-07-08T06:45:45.178Z,23.97
2023-07-08T06:46:17.881Z,23.99
2023-07-08T06:46:49.797Z,23.99
2023-07-08T06:47:22.666Z,23.99
2023-07-08T06:47:54.621Z,24.01
2023-07-08T06:48:26.731Z,24.06
2023-07-08T06:48:58.634Z,24.08
2023-07-08T06:49:30.529Z,24.10
2023-07-08T06:50:03.384Z,24.08
2023-07-08T06:50:35.324Z,24.14
2023-07-08T06:51:08.204Z,24.13
2023-07-08T06:51:40.747Z,24.10
2023-07-08T06:52:12.694Z,24.09
2023-07-08T06:52:44.603Z,24.03
2023-07-08T06:53:17.047Z,24.04
2023-07-08T06:53:48.953Z,24.07
2023-07-08T06:54:20.865Z,24.06
2023-07-08T06:54:52.787Z,24.07
2023-07-08T06:55:24.790Z,24.07
2023-07-08T06:55:56.706Z,24.06
2023-07-08T06:56:28.628Z,24.06
2023-07-08T06:57:00.536Z,24.08
2023-07-08T06:57:32.885Z,24.04
2023-07-08T06:58:04.796Z,24.07
2023-07-08T06:58:36.733Z,24.04
2023-07-08T06:59:10.034Z,24.05
2023-07-08T06:59:41.948Z,24.07
2023-07-08T07:00:14.233Z,24.07
2023-07-08T07:00:46.700Z,24.09
2023-07-08T07:01:18.844Z,24.15
2023-07-08T07:01:50.859Z,24.15
2023-07-08T07:02:22.812Z,24.17
2023-07-08T07:02:54.818Z,24.22
2023-07-08T07:03:26.846Z,24.25
2023-07-08T07:03:58.902Z,24.29
2023-07-08T07:04:33.469Z,24.33
2023-07-08T07:05:06.320Z,24.36
2023-07-08T07:05:38.385Z,24.38
2023-07-08T07:06:10.323Z,24.42
2023-07-08T07:06:42.237Z,24.42
2023-07-08T07:07:14.153Z,24.46
2023-07-08T07:07:46.050Z,24.49
2023-07-08T07:08:17.948Z,24.49
2023-07-08T07:08:49.909Z,24.47
2023-07-08T07:09:21.837Z,24.46
2023-07-08T07:09:55.264Z,24.45
2023-07-08T07:10:27.144Z,24.43